createdAt,value
2019-02-28T00:00:55.683Z,30.27
2019-02-28T00:03:26.212Z,29.83
2019-02-28T00:05:55.251Z,30.53
2019-02-28T00:08:24.124Z,29.43
2019-02-28T00:10:55.097Z,29.37
2019-02-28T00:13:23.977Z,30.90
2019-02-28T00:15:52.838Z,31.60
2019-02-28T00:18:21.489Z,33.47
2019-02-28T00:20:50.458Z,33.93
2019-02-28T00:23:21.970Z,30.83
2019-02-28T00:25:50.184Z,34.23
2019-02-28T00:28:18.905Z,33.77
2019-02-28T00:30:47.539Z,34.60
2019-02-28T00:33:16.386Z,35.27
2019-02-28T00:35:45.483Z,36.00
2019-02-28T00:38:14.814Z,39.57
2019-02-28T00:40:43.560Z,37.37
2019-02-28T00:43:12.178Z,35.73
2019-02-28T00:45:41.279Z,40.33
2019-02-28T00:48:09.892Z,36.27
2019-02-28T00:50:38.751Z,41.27
2019-02-28T00:53:07.466Z,40.60
2019-02-28T00:55:36.312Z,43.17
2019-02-28T00:58:04.938Z,41.40
2019-02-28T01:00:37.155Z,38.87
2019-02-28T01:03:03.996Z,47.80
2019-02-28T01:05:32.683Z,47.30
2019-02-28T01:08:01.554Z,49.63
2019-02-28T01:10:30.696Z,46.70
2019-02-28T01:12:59.871Z,51.13
2019-02-28T01:15:29.221Z,51.93
2019-02-28T01:18:00.480Z,53.13
2019-02-28T01:20:28.517Z,54.47
2019-02-28T01:22:58.462Z,54.20
2019-02-28T01:25:27.912Z,56.03
2019-02-28T01:27:56.781Z,60.40
2019-02-28T01:30:25.642Z,60.07
2019-02-28T01:32:54.519Z,64.90
2019-02-28T01:35:23.836Z,66.27
2019-02-28T01:37:53.056Z,59.37
2019-02-28T01:40:21.973Z,64.33
2019-02-28T01:42:53.919Z,64.30
2019-02-28T01:45:21.029Z,65.03
2019-02-28T01:47:51.771Z,66.00
2019-02-28T01:50:20.556Z,68.90
2019-02-28T01:52:49.202Z,69.33
2019-02-28T01:55:18.073Z,68.90
2019-02-28T01:57:47.220Z,74.17
2019-02-28T02:00:16.198Z,70.90
2019-02-28T02:02:45.369Z,75.60
2019-02-28T02:05:17.010Z,77.33
2019-02-28T02:07:44.469Z,76.93
2019-02-28T02:10:21.307Z,76.37
2019-02-28T02:12:48.863Z,81.33
2019-02-28T02:15:17.912Z,77.60
2019-02-28T02:17:46.835Z,72.23
2019-02-28T02:20:15.617Z,83.87
2019-02-28T02:22:45.403Z,85.30
2019-02-28T02:25:14.316Z,86.57
2019-02-28T02:27:43.271Z,90.77
2019-02-28T02:30:17.342Z,81.00
2019-02-28T02:32:47.210Z,84.97
2019-02-28T02:35:16.953Z,87.17
2019-02-28T02:37:45.902Z,79.13
2019-02-28T02:40:14.916Z,87.77
2019-02-28T02:42:48.494Z,88.10
2019-02-28T02:45:14.555Z,95.77
2019-02-28T02:47:43.708Z,94.00
2019-02-28T02:50:13.501Z,94.53
2019-02-28T02:52:42.400Z,94.80
2019-02-28T02:55:11.552Z,89.50
2019-02-28T02:57:40.715Z,100.40
2019-02-28T03:00:13.949Z,96.97
2019-02-28T03:02:43.816Z,87.73
2019-02-28T03:05:13.219Z,83.37
2019-02-28T03:07:42.127Z,101.00
2019-02-28T03:10:11.599Z,93.43
2019-02-28T03:12:40.248Z,103.47
2019-02-28T03:15:10.322Z,98.87
2019-02-28T03:17:46.644Z,101.50
2019-02-28T03:20:11.841Z,103.43
2019-02-28T03:22:40.645Z,100.33
2019-02-28T03:25:10.273Z,92.77
2019-02-28T03:27:39.205Z,99.90
2019-02-28T03:30:11.532Z,101.07
2019-02-28T03:32:42.713Z,99.17
2019-02-28T03:35:11.242Z,103.77
2019-02-28T03:37:40.171Z,104.93
2019-02-28T03:40:09.413Z,108.33
2019-02-28T03:42:38.180Z,113.40
2019-02-28T03:45:07.412Z,103.43
2019-02-28T03:47:36.621Z,111.67
2019-02-28T03:50:06.554Z,115.57
2019-02-28T03:52:41.696Z,103.93
2019-02-28T03:55:06.976Z,109.60
2019-02-28T03:57:35.933Z,102.87
2019-02-28T04:00:06.931Z,117.27
2019-02-28T04:02:36.271Z,109.90
2019-02-28T04:05:05.170Z,114.40
2019-02-28T04:07:34.659Z,111.43
2019-02-28T04:10:03.581Z,104.10
2019-02-28T04:12:32.500Z,107.27
2019-02-28T04:15:05.788Z,118.27
2019-02-28T04:17:32.038Z,116.93
2019-02-28T04:20:00.975Z,110.67
2019-02-28T04:22:30.230Z,108.23
2019-02-28T04:24:59.115Z,119.60
2019-02-28T04:27:29.992Z,116.53
2019-02-28T04:30:05.885Z,111.73
2019-02-28T04:32:29.398Z,112.87
2019-02-28T04:34:58.256Z,107.00
2019-02-28T04:37:26.890Z,116.67
2019-02-28T04:39:55.862Z,110.73
2019-02-28T04:42:25.298Z,115.00
2019-02-28T04:44:53.926Z,116.27
2019-02-28T04:47:22.942Z,115.37
2019-02-28T04:49:53.526Z,114.20
2019-02-28T04:52:22.305Z,111.43
2019-02-28T04:54:51.254Z,105.50
2019-02-28T04:57:20.690Z,92.20
2019-02-28T04:59:50.442Z,109.63
2019-02-28T05:02:22.986Z,107.27
2019-02-28T05:04:52.422Z,105.87
2019-02-28T05:07:21.321Z,106.87
2019-02-28T05:09:50.775Z,109.87
2019-02-28T05:12:19.837Z,117.10
2019-02-28T05:14:48.758Z,103.90
2019-02-28T05:17:19.394Z,113.93
2019-02-28T05:19:48.592Z,114.10
2019-02-28T05:22:17.609Z,111.17
2019-02-28T05:24:46.551Z,109.27
2019-02-28T05:27:15.683Z,107.63
2019-02-28T05:29:44.883Z,102.50
2019-02-28T05:32:14.643Z,110.83
2019-02-28T05:34:43.851Z,112.57
2019-02-28T05:37:13.221Z,117.73
2019-02-28T05:39:43.690Z,100.60
2019-02-28T05:42:13.064Z,114.60
2019-02-28T05:44:41.713Z,95.30
2019-02-28T05:47:11.671Z,112.90
2019-02-28T05:49:41.981Z,113.30
2019-02-28T05:52:11.014Z,115.57
2019-02-28T05:54:39.950Z,108.57
2019-02-28T05:57:08.938Z,115.37
2019-02-28T05:59:38.137Z,104.97
2019-02-28T06:02:07.306Z,116.20
2019-02-28T06:04:37.193Z,110.00
2019-02-28T06:07:06.472Z,110.93
2019-02-28T06:09:35.710Z,104.60
2019-02-28T06:12:06.661Z,112.00
2019-02-28T06:14:35.978Z,116.10
2019-02-28T06:17:05.018Z,113.87
2019-02-28T06:19:33.708Z,106.10
2019-02-28T06:22:02.772Z,109.13
2019-02-28T06:24:31.507Z,110.33
2019-02-28T06:27:03.634Z,108.57
2019-02-28T06:29:32.594Z,112.83
2019-02-28T06:32:01.293Z,124.03
2019-02-28T06:34:30.007Z,103.43
2019-02-28T06:37:00.410Z,122.83
2019-02-28T06:39:32.714Z,120.97
2019-02-28T06:42:03.278Z,115.83
2019-02-28T06:44:32.206Z,115.07
2019-02-28T06:47:01.430Z,123.27
2019-02-28T06:49:30.559Z,129.97
2019-02-28T06:52:00.039Z,134.63
2019-02-28T06:54:29.258Z,131.07
2019-02-28T06:56:58.197Z,135.07
2019-02-28T06:59:27.159Z,131.53
2019-02-28T07:01:57.602Z,129.67
2019-02-28T07:04:27.176Z,142.33
2019-02-28T07:06:56.583Z,142.83
2019-02-28T07:09:30.423Z,151.70
2019-02-28T07:11:59.383Z,136.37
2019-02-28T07:14:28.675Z,139.50
2019-02-28T07:16:57.741Z,132.50
2019-02-28T07:19:27.070Z,133.67
2019-02-28T07:21:55.748Z,134.13
2019-02-28T07:24:24.773Z,145.00
2019-02-28T07:26:53.817Z,134.00
2019-02-28T07:29:23.010Z,133.10
2019-02-28T07:31:52.219Z,136.20
2019-02-28T07:34:23.869Z,133.63
2019-02-28T07:36:51.782Z,138.47
2019-02-28T07:39:20.706Z,147.73
2019-02-28T07:41:49.617Z,132.17
2019-02-28T07:44:22.153Z,152.87
2019-02-28T07:46:49.036Z,155.30
2019-02-28T07:49:18.185Z,149.20
2019-02-28T07:51:47.331Z,144.10
2019-02-28T07:54:16.663Z,136.70
2019-02-28T07:56:45.648Z,142.67
2019-02-28T07:59:14.803Z,130.10
2019-02-28T08:01:43.684Z,146.30
2019-02-28T08:04:12.557Z,123.03
2019-02-28T08:06:41.454Z,149.60
2019-02-28T08:09:27.350Z,124.60
2019-02-28T08:11:56.719Z,134.03
2019-02-28T08:14:25.892Z,133.93
2019-02-28T08:16:55.082Z,134.80
2019-02-28T08:19:27.252Z,136.00
2019-02-28T08:21:54.360Z,121.50
2019-02-28T08:24:23.303Z,133.13
2019-02-28T08:26:53.657Z,135.50
2019-02-28T08:29:22.778Z,136.43
2019-02-28T08:31:51.918Z,135.27
2019-02-28T08:34:23.756Z,137.17
2019-02-28T08:36:51.199Z,133.47
2019-02-28T08:39:19.930Z,122.13
2019-02-28T08:41:49.638Z,132.57
2019-02-28T08:44:22.840Z,139.07
2019-02-28T08:46:49.197Z,126.70
2019-02-28T08:49:18.081Z,124.33
2019-02-28T08:51:46.966Z,124.60
2019-02-28T08:54:15.852Z,125.60
2019-02-28T08:56:46.265Z,123.13
2019-02-28T08:59:18.633Z,116.13
2019-02-28T09:01:46.021Z,121.20
2019-02-28T09:04:14.650Z,114.60
2019-02-28T09:06:43.532Z,123.03
2019-02-28T09:09:14.568Z,121.50
2019-02-28T09:11:44.184Z,119.37
2019-02-28T09:14:14.706Z,96.47
2019-02-28T09:16:43.181Z,126.17
2019-02-28T09:19:11.794Z,108.63
2019-02-28T09:21:41.275Z,111.27
2019-02-28T09:24:12.522Z,112.83
2019-02-28T09:26:40.912Z,108.53
2019-02-28T09:29:09.807Z,105.60
2019-02-28T09:31:39.018Z,126.07
2019-02-28T09:34:09.275Z,98.60
2019-02-28T09:36:38.466Z,111.77
2019-02-28T09:39:07.884Z,103.50
2019-02-28T09:41:40.172Z,113.70
2019-02-28T09:44:07.583Z,106.40
2019-02-28T09:46:36.469Z,98.63
2019-02-28T09:49:05.763Z,88.37
2019-02-28T09:51:34.750Z,86.47
2019-02-28T09:54:03.381Z,86.80
2019-02-28T09:56:32.096Z,88.13
2019-02-28T09:59:03.284Z,84.97
2019-02-28T10:01:31.336Z,97.73
2019-02-28T10:04:00.230Z,96.53
2019-02-28T10:06:29.120Z,91.30
2019-02-28T10:08:57.744Z,89.50
2019-02-28T10:11:31.213Z,77.13
2019-02-28T10:13:56.756Z,81.13
2019-02-28T10:16:25.985Z,85.47
2019-02-28T10:18:54.630Z,88.83
2019-02-28T10:21:23.271Z,93.07
2019-02-28T10:23:53.347Z,96.30
2019-02-28T10:26:22.347Z,80.63
2019-02-28T10:28:51.481Z,80.17
2019-02-28T10:31:22.935Z,80.17
2019-02-28T10:33:52.402Z,81.97
2019-02-28T10:36:21.418Z,74.63
2019-02-28T10:38:50.548Z,81.93
2019-02-28T10:41:19.541Z,86.07
2019-02-28T10:43:52.064Z,73.90
2019-02-28T10:46:20.260Z,71.97
2019-02-28T10:48:51.011Z,76.93
2019-02-28T10:51:19.984Z,75.33
2019-02-28T10:53:48.863Z,69.20
2019-02-28T10:56:17.762Z,76.07
2019-02-28T10:58:47.198Z,74.13
2019-02-28T11:01:17.873Z,82.27
2019-02-28T11:03:47.295Z,82.37
2019-02-28T11:06:16.221Z,74.13
2019-02-28T11:08:47.530Z,73.53
2019-02-28T11:11:16.424Z,57.37
2019-02-28T11:13:45.476Z,70.13
2019-02-28T11:16:14.508Z,54.97
2019-02-28T11:18:43.682Z,62.40
2019-02-28T11:21:14.989Z,71.13
2019-02-28T11:23:49.065Z,58.40
2019-02-28T11:26:15.180Z,67.73
2019-02-28T11:28:44.024Z,58.67
2019-02-28T11:31:13.073Z,64.07
2019-02-28T11:33:42.374Z,59.80
2019-02-28T11:36:11.249Z,59.43
2019-02-28T11:38:40.202Z,59.33
2019-02-28T11:41:09.101Z,60.90
2019-02-28T11:43:38.602Z,59.37
2019-02-28T11:46:08.136Z,59.60
2019-02-28T11:48:36.885Z,53.47
2019-02-28T11:51:05.580Z,54.90
2019-02-28T11:53:39.249Z,49.17
2019-02-28T11:56:04.818Z,42.13
2019-02-28T11:58:33.934Z,56.97
2019-02-28T12:01:02.812Z,53.37
2019-02-28T12:03:35.087Z,53.93
2019-02-28T12:06:02.569Z,62.23
2019-02-28T12:08:31.501Z,39.30
2019-02-28T12:11:01.835Z,55.27
2019-02-28T12:13:31.555Z,43.43
2019-02-28T12:16:00.669Z,53.70
2019-02-28T12:18:29.832Z,49.93
2019-02-28T12:21:01.756Z,51.13
2019-02-28T12:23:29.792Z,54.33
2019-02-28T12:25:58.745Z,52.27
2019-02-28T12:28:27.456Z,52.60
2019-02-28T12:30:57.220Z,58.43
2019-02-28T12:33:26.937Z,46.43
2019-02-28T12:35:55.552Z,47.93
2019-02-28T12:38:25.872Z,47.97
2019-02-28T12:40:54.840Z,48.20
2019-02-28T12:43:23.916Z,49.23
2019-02-28T12:45:53.621Z,36.47
2019-02-28T12:48:22.336Z,37.10
2019-02-28T12:50:51.226Z,36.87
2019-02-28T12:53:24.223Z,35.53
2019-02-28T12:55:50.498Z,37.43
2019-02-28T12:58:19.147Z,38.93
2019-02-28T13:00:48.223Z,48.30
2019-02-28T13:03:20.055Z,41.87
2019-02-28T13:05:49.278Z,44.83
2019-02-28T13:08:18.161Z,42.17
2019-02-28T13:10:47.368Z,43.70
2019-02-28T13:13:16.218Z,39.67
2019-02-28T13:15:45.728Z,38.10
2019-02-28T13:18:15.658Z,41.53
2019-02-28T13:20:44.630Z,39.63
2019-02-28T13:23:13.528Z,39.70
2019-02-28T13:25:42.163Z,40.83
2019-02-28T13:28:11.263Z,45.63
2019-02-28T13:30:40.852Z,38.40
2019-02-28T13:33:10.939Z,42.37
2019-02-28T13:35:46.025Z,44.73
2019-02-28T13:38:17.498Z,41.20
2019-02-28T13:40:44.723Z,39.10
2019-02-28T13:43:19.690Z,43.40
2019-02-28T13:45:43.439Z,43.80
2019-02-28T13:48:12.056Z,33.77
2019-02-28T13:50:40.667Z,38.17
2019-02-28T13:53:18.601Z,42.27
2019-02-28T13:55:40.974Z,40.73
2019-02-28T13:58:09.861Z,37.00
2019-02-28T14:00:43.578Z,33.30
2019-02-28T14:03:10.355Z,36.67
2019-02-28T14:05:41.378Z,38.93
2019-02-28T14:08:11.775Z,36.27
2019-02-28T14:10:40.496Z,33.20
2019-02-28T14:13:09.134Z,46.57
2019-02-28T14:15:40.214Z,33.83
2019-02-28T14:18:10.834Z,39.47
2019-02-28T14:20:40.298Z,39.03
2019-02-28T14:23:09.167Z,34.00
2019-02-28T14:25:39.774Z,40.43
2019-02-28T14:28:08.538Z,36.13
2019-02-28T14:30:37.552Z,30.77
2019-02-28T14:33:07.074Z,34.80
2019-02-28T14:35:38.455Z,35.37
2019-02-28T14:38:06.750Z,29.20
2019-02-28T14:40:35.434Z,34.63
2019-02-28T14:43:04.560Z,31.33
2019-02-28T14:45:33.390Z,31.77
2019-02-28T14:48:04.329Z,34.53
2019-02-28T14:50:32.647Z,26.80
2019-02-28T14:53:01.481Z,30.60
2019-02-28T14:55:32.615Z,33.97
2019-02-28T14:58:01.341Z,29.97
2019-02-28T15:00:30.551Z,33.03
2019-02-28T15:03:03.051Z,30.27
2019-02-28T15:05:30.482Z,32.77
2019-02-28T15:07:59.298Z,34.33
2019-02-28T15:10:28.470Z,31.00
2019-02-28T15:12:58.627Z,34.67
2019-02-28T15:15:28.717Z,29.67
2019-02-28T15:17:57.326Z,31.67
2019-02-28T15:20:31.709Z,42.97
2019-02-28T15:22:59.394Z,35.30
2019-02-28T15:25:27.444Z,32.37
2019-02-28T15:27:57.451Z,31.70
2019-02-28T15:30:30.496Z,33.43
2019-02-28T15:32:58.773Z,36.13
2019-02-28T15:35:27.449Z,33.87
2019-02-28T15:37:57.211Z,33.07
2019-02-28T15:40:28.562Z,35.60
2019-02-28T15:42:57.185Z,37.53
2019-02-28T15:45:26.891Z,38.90
2019-02-28T15:48:00.229Z,37.20
2019-02-28T15:50:29.603Z,35.83
2019-02-28T15:52:59.033Z,32.13
2019-02-28T15:55:27.794Z,38.93
2019-02-28T15:57:56.483Z,34.97
2019-02-28T16:00:28.546Z,29.97
2019-02-28T16:02:57.588Z,39.83
2019-02-28T16:05:26.289Z,35.07
2019-02-28T16:07:55.415Z,40.33
2019-02-28T16:10:28.577Z,33.20
2019-02-28T16:12:56.361Z,34.53
2019-02-28T16:15:25.349Z,38.37
2019-02-28T16:17:54.269Z,35.73
2019-02-28T16:20:25.007Z,34.53
2019-02-28T16:22:53.759Z,38.97
2019-02-28T16:25:24.780Z,39.40
2019-02-28T16:27:53.729Z,39.17
2019-02-28T16:30:22.423Z,38.83
2019-02-28T16:32:51.517Z,36.23
2019-02-28T16:35:20.208Z,40.43
2019-02-28T16:37:49.113Z,36.23
2019-02-28T16:40:20.290Z,39.50
2019-02-28T16:42:49.229Z,43.60
2019-02-28T16:45:24.974Z,44.33
2019-02-28T16:47:55.666Z,42.27
2019-02-28T16:50:24.204Z,38.27
2019-02-28T16:52:53.424Z,49.73
2019-02-28T16:55:22.024Z,39.13
2019-02-28T16:57:50.762Z,41.67
2019-02-28T17:00:19.754Z,41.17
2019-02-28T17:02:48.382Z,41.53
2019-02-28T17:05:17.685Z,42.03
2019-02-28T17:07:48.408Z,43.33
2019-02-28T17:10:17.488Z,41.67
2019-02-28T17:13:08.599Z,35.77
2019-02-28T17:15:55.809Z,42.20
2019-02-28T17:18:25.721Z,39.73
2019-02-28T17:20:54.661Z,35.30
2019-02-28T17:23:24.089Z,47.33
2019-02-28T17:25:53.584Z,38.90
2019-02-28T17:28:46.555Z,44.37
2019-02-28T17:31:50.163Z,55.17
2019-02-28T17:34:23.829Z,68.03
2019-02-28T17:36:51.235Z,57.90
2019-02-28T17:39:20.355Z,45.70
2019-02-28T17:41:49.339Z,46.87
2019-02-28T17:45:02.063Z,43.57
2019-02-28T17:48:39.408Z,49.03
2019-02-28T17:51:18.803Z,50.33
2019-02-28T17:54:20.866Z,47.73
2019-02-28T17:57:22.081Z,44.67
2019-02-28T18:00:33.793Z,54.50
2019-02-28T18:03:20.402Z,50.73
2019-02-28T18:06:24.966Z,53.30
2019-02-28T18:09:14.830Z,53.90
2019-02-28T18:11:55.918Z,56.23
2019-02-28T18:14:55.711Z,51.57
2019-02-28T18:18:19.408Z,52.77
2019-02-28T18:21:20.730Z,50.83
2019-02-28T18:24:38.036Z,60.93
2019-02-28T18:27:38.835Z,56.03
2019-02-28T18:30:52.332Z,46.70
2019-02-28T18:33:21.302Z,55.83
2019-02-28T18:35:50.164Z,54.17
2019-02-28T18:38:19.044Z,48.10
2019-02-28T18:40:47.967Z,54.13
2019-02-28T18:43:16.610Z,51.63
2019-02-28T18:45:45.244Z,49.13
2019-02-28T18:48:14.569Z,51.27
2019-02-28T18:50:44.371Z,54.80
2019-02-28T18:53:13.270Z,46.73
2019-02-28T18:55:42.397Z,50.63
2019-02-28T18:58:11.128Z,55.53
2019-02-28T19:00:40.094Z,49.83
2019-02-28T19:03:08.765Z,51.00
2019-02-28T19:05:37.633Z,51.13
2019-02-28T19:08:06.329Z,47.17
2019-02-28T19:10:35.102Z,47.33
2019-02-28T19:13:03.969Z,49.90
2019-02-28T19:15:33.024Z,47.20
2019-02-28T19:18:02.153Z,48.50
2019-02-28T19:20:31.045Z,50.47
2019-02-28T19:23:00.205Z,49.90
2019-02-28T19:25:29.220Z,51.33
2019-02-28T19:27:58.135Z,48.07
2019-02-28T19:30:26.806Z,47.17
2019-02-28T19:32:55.704Z,46.13
2019-02-28T19:35:24.800Z,45.33
2019-02-28T19:37:53.448Z,45.00
2019-02-28T19:40:22.299Z,44.10
2019-02-28T19:42:51.182Z,43.57
2019-02-28T19:45:19.859Z,49.23
2019-02-28T19:47:48.730Z,46.23
2019-02-28T19:50:17.614Z,43.60
2019-02-28T19:52:46.266Z,41.77
2019-02-28T19:55:15.014Z,37.80
2019-02-28T19:57:43.643Z,38.97
2019-02-28T20:00:14.216Z,39.17
2019-02-28T20:02:43.203Z,38.90
2019-02-28T20:05:12.273Z,42.07
2019-02-28T20:07:41.177Z,40.67
2019-02-28T20:10:13.370Z,38.47
2019-02-28T20:12:41.990Z,32.13
2019-02-28T20:15:11.833Z,38.87
2019-02-28T20:17:40.690Z,38.70
2019-02-28T20:20:12.205Z,33.77
2019-02-28T20:22:41.177Z,32.07
2019-02-28T20:25:10.792Z,35.90
2019-02-28T20:27:39.689Z,28.33
2019-02-28T20:30:10.284Z,23.97
2019-02-28T20:32:39.239Z,31.50
2019-02-28T20:35:08.436Z,25.07
2019-02-28T20:37:37.123Z,27.47
2019-02-28T20:40:07.952Z,32.23
2019-02-28T20:42:36.858Z,29.40
2019-02-28T20:45:06.515Z,23.60
2019-02-28T20:47:35.637Z,28.37
2019-02-28T20:50:06.861Z,27.03
2019-02-28T20:52:35.816Z,28.03
2019-02-28T20:55:04.947Z,26.57
2019-02-28T20:57:33.882Z,22.73
2019-02-28T21:00:02.747Z,22.90
2019-02-28T21:02:31.716Z,24.53
2019-02-28T21:05:00.362Z,20.43
2019-02-28T21:07:28.975Z,22.60
2019-02-28T21:09:58.189Z,23.50
2019-02-28T21:12:26.834Z,25.03
2019-02-28T21:14:55.705Z,19.60
2019-02-28T21:17:29.326Z,21.37
2019-02-28T21:19:55.152Z,22.20
2019-02-28T21:22:24.053Z,26.20
2019-02-28T21:24:52.964Z,22.97
2019-02-28T21:27:22.064Z,21.33
2019-02-28T21:29:50.925Z,20.80
2019-02-28T21:32:19.596Z,22.80
2019-02-28T21:34:48.501Z,26.20
2019-02-28T21:37:17.167Z,28.27
2019-02-28T21:39:46.074Z,23.60
2019-02-28T21:42:14.914Z,23.60
2019-02-28T21:44:44.293Z,22.20
2019-02-28T21:47:13.177Z,21.27
2019-02-28T21:49:42.264Z,28.00
2019-02-28T21:52:11.234Z,25.60
2019-02-28T21:54:40.141Z,24.97
2019-02-28T21:57:09.015Z,26.80
2019-02-28T21:59:37.896Z,25.53
2019-02-28T22:02:06.798Z,27.60
2019-02-28T22:04:35.424Z,20.07
2019-02-28T22:07:04.151Z,23.77
2019-02-28T22:09:32.811Z,26.97
2019-02-28T22:12:01.413Z,20.30
2019-02-28T22:14:30.325Z,29.60
2019-02-28T22:16:59.457Z,25.07
2019-02-28T22:19:28.069Z,21.73
2019-02-28T22:21:57.222Z,22.67
2019-02-28T22:24:25.880Z,23.90
2019-02-28T22:26:54.747Z,19.13
2019-02-28T22:29:23.620Z,22.20
2019-02-28T22:31:59.153Z,22.03
2019-02-28T22:34:36.518Z,26.50
2019-02-28T22:37:05.253Z,21.57
2019-02-28T22:39:34.387Z,20.53
2019-02-28T22:42:02.997Z,17.63
2019-02-28T22:44:31.888Z,21.37
2019-02-28T22:47:00.502Z,19.00
2019-02-28T22:49:29.413Z,22.30
2019-02-28T22:51:58.025Z,18.93
2019-02-28T22:54:26.870Z,22.73
2019-02-28T22:56:55.533Z,19.47
2019-02-28T22:59:24.395Z,21.67
2019-02-28T23:01:54.851Z,17.53
2019-02-28T23:04:23.870Z,18.77
2019-02-28T23:06:52.484Z,20.57
2019-02-28T23:09:21.360Z,24.47
2019-02-28T23:11:50.079Z,16.53
2019-02-28T23:14:18.717Z,27.70
2019-02-28T23:16:47.648Z,20.67
2019-02-28T23:19:16.805Z,18.57
2019-02-28T23:21:46.164Z,18.73
2019-02-28T23:24:15.193Z,29.07
2019-02-28T23:27:11.831Z,21.53
2019-02-28T23:29:43.884Z,23.17
2019-02-28T23:32:46.242Z,20.97
2019-02-28T23:35:21.368Z,18.93
2019-02-28T23:37:50.247Z,17.33
2019-02-28T23:40:18.866Z,19.77
2019-02-28T23:42:47.759Z,17.00
2019-02-28T23:45:16.896Z,21.43
2019-02-28T23:47:46.032Z,25.07
2019-02-28T23:50:14.910Z,22.67
2019-02-28T23:52:43.541Z,19.97
2019-02-28T23:55:12.260Z,20.77
2019-02-28T23:57:41.150Z,22.50
